Flight Track Log - Related Links

Times and Time Zones

All times are in EDT time to prevent confusion due to time zone crossing. See the CNS33 flight status page for this flight to view local times or setup timezone preferences in your user account.

Time Position Orientation Groundspeed Altitude Reporting Facility
EDT Latitude Longitude Course Direction KTS MPH feet Rate Location/Type
Sun 10:07:37 AM 38.2333 -85.6333 121° Southeast 90 104 2,300  Level Louisville TRACON
Sun 10:09:50 AM 38.1942 -85.5500 121° Southeast 139 160 4,700 1,200 Climbing Indianapolis Center
Sun 10:10:52 AM 38.1706 -85.4997 121° Southeast 138 159 6,200 1,306 Climbing Indianapolis Center
Sun 10:11:54 AM 38.1500 -85.4561 121° Southeast 141 162 7,400 1,306 Climbing Indianapolis Center
Sun 10:12:56 AM 38.1289 -85.4119 121° Southeast 145 167 8,900 1,355 Climbing Indianapolis Center
Sun 10:13:58 AM 38.1086 -85.3708 122° Southeast 139 160 10,200 1,161 Climbing Indianapolis Center
Sun 10:15:00 AM 38.0914 -85.3294 118° Southeast 133 153 11,300 871 Climbing Indianapolis Center
Sun 10:16:02 AM 38.1242 -85.2789 50° Northeast 181 208 12,000 871 Climbing Indianapolis Center
Sun 10:17:04 AM 38.1606 -85.2275 48° Northeast 194 223 13,100 968 Climbing Indianapolis Center
Sun 10:18:06 AM 38.1983 -85.1703 50° Northeast 189 217 14,000 823 Climbing Indianapolis Center
Sun 10:19:08 AM 38.2333 -85.1164 50° Northeast 195 224 14,800 919 Climbing Indianapolis Center
Sun 10:20:10 AM 38.2689 -85.0633 50° Northeast 196 226 15,900 1,152 Climbing Indianapolis Center
Sun 10:21:13 AM 38.2906 -85.0086 63° Northeast 153 176 17,200 1,008 Climbing Indianapolis Center
Sun 10:22:15 AM 38.3053 -84.9558 70° East 154 177 18,000 774 Climbing Indianapolis Center
Sun 10:23:17 AM 38.3194 -84.9003 72° East 164 189 18,800 774 Climbing Indianapolis Center
Sun 10:24:19 AM 38.3328 -84.8472 72° East 160 184 19,600 629 Climbing Indianapolis Center
Sun 10:25:21 AM 38.3467 -84.7917 72° East 163 188 20,100 629 Climbing Indianapolis Center
Sun 10:26:23 AM 38.3633 -84.7258 72° East 166 191 20,900 677 Climbing Indianapolis Center
Sun 10:27:25 AM 38.3789 -84.6667 71° East 173 199 21,500 532 Climbing Indianapolis Center
Sun 10:28:27 AM 38.3939 -84.6075 72° East 175 201 22,000 774 Climbing Indianapolis Center
Sun 10:29:29 AM 38.4083 -84.5533 71° East 166 191 23,100 774 Climbing Indianapolis Center
Sun 10:30:31 AM 38.4197 -84.5033 74° East 150 173 23,600 532 Climbing Indianapolis Center
Sun 10:31:33 AM 38.4356 -84.4425 72° East 154 177 24,200 532 Climbing Indianapolis Center
Sun 10:32:35 AM 38.4492 -84.3872 73° East 161 185 24,700 387 Climbing Indianapolis Center
Sun 10:33:37 AM 38.4636 -84.3308 72° East 167 192 25,000 145 Climbing Indianapolis Center
Sun 10:34:39 AM 38.4797 -84.2625 73° East 192 221 25,000  Level Indianapolis Center
Sun 10:35:41 AM 38.4992 -84.1883 71° East 217 250 25,000  Level Indianapolis Center
Sun 10:36:43 AM 38.5194 -84.1086 72° East 230 265 25,000  Level Indianapolis Center
Sun 10:37:45 AM 38.5425 -84.0164 72° East 234 269 25,000 -97 Level Indianapolis Center
Sun 10:38:47 AM 38.5628 -83.9353 72° East 238 274 24,800 -581 Descending Indianapolis Center
Sun 10:39:49 AM 38.5844 -83.8469 73° East 258 297 23,800 -919 Descending Indianapolis Center
Sun 10:40:51 AM 38.6075 -83.7522 73° East 275 316 22,900 -726 Descending Indianapolis Center
Sun 10:41:53 AM 38.6317 -83.6544 72° East 286 329 22,300 -484 Descending Indianapolis Center
Sun 10:42:55 AM 38.6569 -83.5525 72° East 278 320 21,900 -435 Descending Indianapolis Center
Sun 10:43:57 AM 38.6783 -83.4597 74° East 272 313 21,400 -677 Descending Indianapolis Center
Sun 10:44:59 AM 38.7019 -83.3672 72° East 272 313 20,500 -968 Descending Indianapolis Center
Sun 10:46:01 AM 38.7253 -83.2714 73° East 279 321 19,400 -726 Descending Indianapolis Center
Sun 10:47:03 AM 38.7472 -83.1772 73° East 276 318 19,000 -195 Descending Indianapolis Center
Sun 10:48:04 AM 38.7681 -83.0914 73° East 251 289 19,000  Level Indianapolis Center
Sun 10:49:06 AM 38.7869 -83.0128 73° East 234 269 19,000  Level Indianapolis Center
Sun 10:50:08 AM 38.8064 -82.9344 72° East 229 264 19,000  Level Indianapolis Center
Sun 10:51:10 AM 38.8275 -82.8428 74° East 224 258 19,000  Level Indianapolis Center
Sun 10:52:12 AM 38.8472 -82.7619 73° East 233 268 19,000  Level Indianapolis Center
Sun 10:53:14 AM 38.8664 -82.6794 73° East 240 276 19,000  Level Indianapolis Center
Sun 10:54:16 AM 38.8867 -82.5944 73° East 247 284 19,000  Level Indianapolis Center
Sun 10:55:18 AM 38.9061 -82.5100 73° East 246 283 19,000  Level Indianapolis Center
Sun 10:56:20 AM 38.9261 -82.4258 73° East 247 284 19,000  Level Indianapolis Center
Sun 10:57:22 AM 38.9450 -82.3408 74° East 247 284 19,000  Level Indianapolis Center
Sun 10:58:24 AM 38.9692 -82.2378 73° East 250 288 19,000  Level Indianapolis Center
Sun 10:59:25 AM 38.9892 -82.1503 74° East 253 291 19,000  Level Indianapolis Center
Sun 11:00:27 AM 39.0086 -82.0642 74° East 250 288 19,000  Level Indianapolis Center
Sun 11:01:29 AM 39.0286 -81.9786 73° East 249 287 19,000  Level Indianapolis Center
Sun 11:02:31 AM 39.0481 -81.8925 74° East 249 287 19,000  Level Indianapolis Center
Sun 11:03:33 AM 39.0678 -81.8064 74° East 250 288 19,000  Level Indianapolis Center
Sun 11:04:35 AM 39.0872 -81.7203 74° East 249 287 19,000  Level Indianapolis Center
Sun 11:05:37 AM 39.1067 -81.6333 74° East 251 289 19,000  Level Indianapolis Center
Sun 11:06:39 AM 39.1264 -81.5464 74° East 251 289 19,000  Level Indianapolis Center
Sun 11:07:40 AM 39.1497 -81.4428 74° East 250 288 19,000  Level Indianapolis Center
Sun 11:08:42 AM 39.1689 -81.3561 74° East 250 288 19,000  Level Indianapolis Center
Sun 11:09:44 AM 39.1886 -81.2697 74° East 250 288 19,000  Level Indianapolis Center
Sun 11:10:46 AM 39.2064 -81.1853 75° East 244 281 19,000  Level Indianapolis Center
Sun 11:11:48 AM 39.2256 -81.1014 74° East 243 280 19,000  Level Indianapolis Center
Sun 11:12:50 AM 39.2442 -81.0169 74° East 244 281 19,000  Level Indianapolis Center
Sun 11:13:52 AM 39.2628 -80.9319 74° East 245 282 19,000  Level Indianapolis Center
Sun 11:14:54 AM 39.2808 -80.8467 75° East 247 284 19,000  Level Indianapolis Center
Sun 11:15:55 AM 39.3028 -80.7444 74° East 246 283 19,000  Level Indianapolis Center
Sun 11:16:57 AM 39.3208 -80.6594 75° East 246 283 19,000  Level Indianapolis Center
Sun 11:17:59 AM 39.3392 -80.5744 74° East 245 282 19,000  Level Indianapolis Center
Sun 11:19:01 AM 39.3575 -80.4894 74° East 245 282 19,000  Level Indianapolis Center
Sun 11:19:48 AM 39.3750 -80.4219 71° East 241 277 19,000  Level Cleveland Center
Sun 11:20:48 AM 39.3936 -80.3414 73° East 241 277 19,000  Level Cleveland Center
Sun 11:21:48 AM 39.4122 -80.2525 75° East 241 277 19,000  Level Cleveland Center
Sun 11:22:48 AM 39.4306 -80.1692 74° East 241 277 19,000  Level Cleveland Center
Sun 11:23:48 AM 39.4469 -80.0858 76° East 241 277 19,000  Level Cleveland Center
Sun 11:24:48 AM 39.4633 -79.9997 76° East 241 277 19,000  Level Cleveland Center
Sun 11:25:48 AM 39.4836 -79.9161 73° East 241 277 19,000  Level Cleveland Center
Sun 11:26:48 AM 39.4997 -79.8297 76° East 241 277 19,000  Level Cleveland Center
Sun 11:27:48 AM 39.5200 -79.7489 72° East 241 277 19,000  Level Cleveland Center
Sun 11:28:48 AM 39.5422 -79.6625 72° East 241 277 19,000  Level Cleveland Center
Sun 11:29:48 AM 39.5625 -79.5786 73° East 241 277 19,000  Level Cleveland Center
Sun 11:30:48 AM 39.5825 -79.4950 73° East 241 277 19,000  Level Cleveland Center
Sun 11:31:48 AM 39.6025 -79.4111 73° East 241 277 19,000  Level Cleveland Center
Sun 11:32:48 AM 39.6225 -79.3272 73° East 241 277 19,000  Level Cleveland Center
Sun 11:33:48 AM 39.6425 -79.2433 73° East 241 277 19,000  Level Cleveland Center
Sun 11:34:48 AM 39.6600 -79.1567 75° East 241 277 19,000  Level Cleveland Center
Sun 11:35:48 AM 39.6800 -79.0753 72° East 241 277 19,000  Level Cleveland Center
Sun 11:36:48 AM 39.6994 -78.9911 73° East 241 277 19,000  Level Cleveland Center
Sun 11:37:48 AM 39.7211 -78.8989 73° East 241 277 19,000  Level Cleveland Center
Sun 11:38:48 AM 39.7408 -78.8147 73° East 241 277 19,000  Level Cleveland Center
Sun 11:39:48 AM 39.7581 -78.7306 75° East 241 277 19,000  Level Cleveland Center
Sun 11:40:48 AM 39.7775 -78.6436 74° East 241 277 19,000  Level Cleveland Center
Sun 11:41:48 AM 39.7931 -78.5728 74° East 241 277 19,000 -350 Level Cleveland Center
Sun 11:42:48 AM 39.8122 -78.4858 74° East 241 277 18,300 -650 Descending Cleveland Center
Sun 11:43:48 AM 39.8333 -78.3933 73° East 251 289 17,700 -650 Descending Cleveland Center
Sun 11:44:48 AM 39.8547 -78.3006 73° East 256 295 17,000 -400 Descending Cleveland Center
Sun 11:45:48 AM 39.8794 -78.1969 73° East 265 305 16,900 -50 Descending Cleveland Center
Sun 11:46:49 AM 39.8986 -78.1097 74° East 258 297 16,900 32 Level Cleveland Center
Sun 11:48:55 AM 39.9350 -77.9458 74° East 244 281 17,000 32 Climbing New York Center
Sun 11:49:55 AM 39.9442 -77.8628 82° East 237 273 17,000  Level New York Center
Sun 11:50:56 AM 39.9533 -77.7769 82° East 237 273 17,000  Level New York Center
Sun 11:51:53 AM 39.9625 -77.6939 82° East 237 273 17,000 -252 Level New York Center
Sun 11:52:55 AM 39.9744 -77.5950 81° East 237 273 16,500 -590 Descending New York Center
Sun 11:53:55 AM 39.9856 -77.5119 80° East 249 287 15,800 -763 Descending New York Center
Sun 11:54:53 AM 39.9997 -77.4075 80° East 254 292 15,000 -763 Descending New York Center
Sun 11:55:53 AM 40.0128 -77.3219 79° East 259 298 14,300 -744 Descending New York Center
Sun 11:56:54 AM 40.0272 -77.2150 80° East 265 305 13,500 -744 Descending New York Center
Sun 11:57:54 AM 40.0381 -77.1292 81° East 265 305 12,800 -800 Descending New York Center
Sun 11:58:54 AM 40.0542 -77.0247 79° East 270 311 11,900 -800 Descending New York Center
Sun 11:59:54 AM 40.0647 -76.9389 81° East 270 311 11,200 -454 Descending New York Center
Sun 12:00:53 PM 40.0750 -76.8611 80° East 259 298 11,000 -605 Descending New York Center
Sun 12:01:53 PM 40.0889 -76.7564 80° East 251 289 10,000 -850 Descending New York Center
Sun 12:02:53 PM 40.1017 -76.6681 79° East 246 283 9,300 -744 Descending New York Center
Sun 12:03:54 PM 40.1122 -76.5819 81° East 241 277 8,500 -738 Descending New York Center
Sun 12:04:55 PM 40.1222 -76.5042 80° East 230 265 7,800 -744 Descending New York Center
Sun 12:05:55 PM 40.1178 -76.4222 94° East 218 251 7,000 -793 Descending New York Center
Sun 12:06:56 PM 40.1131 -76.3486 95° East 218 251 6,200 -814 Descending New York Center
Sun 12:07:53 PM 40.1089 -76.2561 93° East 218 251 5,400 -615 Descending New York Center
Sun 12:08:53 PM 40.1022 -76.1767 96° East 223 257 5,000 -198 Descending New York Center
Sun 12:09:54 PM 40.0992 -76.1058 93° East 216 249 5,000  Level New York Center
Sun 12:10:55 PM 40.0947 -76.0214 94° East 216 249 5,000  Level New York Center
Sun 12:11:55 PM 40.0914 -75.9533 94° East 216 249 5,000  Level New York Center
Sun 12:12:53 PM 40.1178 -75.8767 66° East 210 242 5,000 -303 Level New York Center
Sun 12:13:54 PM 40.1517 -75.8139 55° Northeast 222 255 4,400 -595 Descending New York Center
Sun 12:14:54 PM 40.1922 -75.7436 53° Northeast 227 261 3,800 300 Descending New York Center
Sun 12:15:54 PM 40.2303 -75.6783 53° Northeast 227 261 5,000 595 Climbing New York Center
Sun 12:16:55 PM 40.2706 -75.6131 51° Northeast 227 261 5,000  Level New York Center
Sun 12:17:54 PM 40.3086 -75.5478 53° Northeast 227 261 5,000  Level New York Center
Sun 12:18:54 PM 40.3400 -75.4953 52° Northeast 227 261 5,000  Level New York Center
Sun 12:20:00 PM 40.2760 -75.5344 191° South  Level Estimated
Sun 12:27:00 PM 40.2333 -75.5500 191° South  Level FlightAware Approximate
Sun 12:28:00 PM 40.2396 -75.5567 191° South  Level Estimated
Sun 12:29:00 PM 40.2396 -75.5567 191° South  Level Estimated
Sun 12:30:00 PM 40.2396 -75.5567 191° South  Level Estimated
Sun 12:31:00 PM 40.2396 -75.5567 191° South  Level Estimated
Sun 12:32:00 PM 40.2396 -75.5567 191° South  Level Estimated
Sun 12:33:00 PM 40.2396 -75.5567 191° South  Level Estimated

Login

Don't have an account? Register now (free) for customized features, flight alerts, and more!